Time;durP1;ratioP1;P1;durP2;ratioP2;P2;SDS_P1;SDS_P2;PMS_P1;PMS_P2;Temp;Humidity;BMP_temperature;BMP_pressure;BME280_temperature;BME280_humidity;BME280_pressure;Samples;Min_cycle;Max_cycle;Signal;HPM_P1;HPM_P2
2022/04/14 00:01:37;;;;;;;7.80;5.28;;;20.00;50.30;;;;;;5135420;27;20046;-61
2022/04/14 00:04:03;;;;;;;6.13;5.53;;;19.90;50.30;;;;;;5135007;27;20043;-61
2022/04/14 00:06:29;;;;;;;5.60;5.10;;;19.90;50.30;;;;;;5099563;27;20011;-61
2022/04/14 00:08:54;;;;;;;6.57;5.30;;;19.90;50.20;;;;;;5117080;27;20020;-60
2022/04/14 00:11:20;;;;;;;5.65;5.07;;;19.90;50.20;;;;;;5135411;27;20474;-60
2022/04/14 00:13:46;;;;;;;6.07;5.47;;;19.90;50.20;;;;;;5135310;27;20016;-60
2022/04/14 00:16:12;;;;;;;6.22;5.63;;;19.90;50.20;;;;;;5117499;27;20039;-60
2022/04/14 00:18:39;;;;;;;6.53;5.13;;;19.90;50.20;;;;;;5117297;27;20508;-62
2022/04/14 00:21:05;;;;;;;5.93;5.43;;;19.90;50.20;;;;;;5134543;27;20019;-61
2022/04/14 00:23:32;;;;;;;6.32;5.72;;;19.90;50.20;;;;;;5116238;27;20111;-61
2022/04/14 00:25:58;;;;;;;5.90;5.40;;;19.90;50.20;;;;;;5134473;27;20015;-61
2022/04/14 00:28:24;;;;;;;5.80;5.10;;;19.90;50.20;;;;;;5116496;27;20043;-61
2022/04/14 00:30:50;;;;;;;5.82;5.20;;;19.90;50.20;;;;;;5134387;27;20055;-61
2022/04/14 00:33:16;;;;;;;6.03;5.43;;;19.90;50.20;;;;;;5116034;27;20109;-61
2022/04/14 00:35:42;;;;;;;5.88;5.28;;;19.90;50.20;;;;;;5134292;27;20034;-61
2022/04/14 00:38:08;;;;;;;5.53;4.85;;;19.90;50.20;;;;;;5116203;27;20035;-61
2022/04/14 00:40:34;;;;;;;5.50;5.00;;;19.90;50.20;;;;;;5134736;27;20064;-60
2022/04/14 00:43:00;;;;;;;6.40;4.90;;;19.90;50.20;;;;;;5134812;27;20075;-61
2022/04/14 00:45:27;;;;;;;5.97;5.40;;;19.90;50.20;;;;;;5135029;27;20094;-60
2022/04/14 00:47:55;;;;;;;5.45;4.95;;;19.90;50.10;;;;;;5134373;27;20078;-59
2022/04/14 00:50:21;;;;;;;5.82;5.15;;;19.90;50.20;;;;;;5134203;27;20015;-60
2022/04/14 00:52:47;;;;;;;5.78;5.28;;;19.90;50.20;;;;;;5134432;27;20068;-61
2022/04/14 00:55:13;;;;;;;6.68;5.60;;;19.90;50.20;;;;;;5115951;27;20407;-63
2022/04/14 00:57:40;;;;;;;5.85;5.35;;;19.90;50.20;;;;;;5099339;27;20039;-63
2022/04/14 01:00:06;;;;;;;6.18;5.57;;;19.90;50.10;;;;;;5134088;27;20015;-60
2022/04/14 01:02:33;;;;;;;7.63;5.75;;;19.90;50.10;;;;;;5133778;27;20512;-60
2022/04/14 01:04:59;;;;;;;5.95;5.35;;;19.80;50.10;;;;;;5134183;27;20066;-60
2022/04/14 01:07:25;;;;;;;6.15;5.43;;;19.90;50.20;;;;;;5134021;28;20469;-61
2022/04/14 01:09:52;;;;;;;6.45;5.50;;;19.80;50.10;;;;;;5134528;28;20016;-60
2022/04/14 01:12:18;;;;;;;7.03;5.70;;;19.90;50.20;;;;;;5134390;28;20023;-62
2022/04/14 01:14:45;;;;;;;6.15;5.55;;;19.80;50.10;;;;;;5133812;28;20504;-60
2022/04/14 01:17:11;;;;;;;6.38;5.80;;;19.80;50.20;;;;;;5134026;28;20473;-60
2022/04/14 01:19:38;;;;;;;6.57;5.70;;;19.90;50.20;;;;;;5134392;28;20007;-60
2022/04/14 01:22:19;;;;;;;6.00;5.40;;;19.90;50.20;;;;;;5134807;28;20068;-60
2022/04/14 01:24:46;;;;;;;6.35;5.75;;;19.90;50.20;;;;;;5116182;28;20114;-60
2022/04/14 01:27:11;;;;;;;6.20;5.60;;;19.80;50.20;;;;;;5133857;28;20389;-60
2022/04/14 01:29:38;;;;;;;7.25;5.55;;;19.80;50.20;;;;;;5134192;28;20027;-61
2022/04/14 01:32:05;;;;;;;6.00;5.40;;;19.80;50.20;;;;;;5133704;28;20473;-59
2022/04/14 01:34:31;;;;;;;6.47;5.53;;;19.80;50.10;;;;;;5115582;28;20493;-60
2022/04/14 01:37:00;;;;;;;6.15;5.55;;;19.80;50.10;;;;;;5133886;28;20103;-60
2022/04/14 01:39:27;;;;;;;5.97;5.35;;;19.80;50.20;;;;;;5133975;28;20075;-60
2022/04/14 01:41:53;;;;;;;7.15;5.72;;;19.80;50.10;;;;;;5134047;28;20082;-60
2022/04/14 01:44:20;;;;;;;6.30;5.70;;;19.80;50.10;;;;;;5134682;28;20429;-60
2022/04/14 01:46:46;;;;;;;5.80;5.30;;;19.80;50.10;;;;;;5134171;28;20026;-60
2022/04/14 01:49:12;;;;;;;6.00;5.50;;;19.80;50.70;;;;;;5133784;28;20507;-60
2022/04/14 01:51:38;;;;;;;6.53;5.82;;;19.80;50.10;;;;;;5134433;28;20374;-60
2022/04/14 01:54:05;;;;;;;7.07;5.93;;;19.80;50.20;;;;;;5133870;28;20019;-60
2022/04/14 01:56:30;;;;;;;7.35;5.50;;;19.80;50.20;;;;;;5134028;28;20019;-61
2022/04/14 01:58:57;;;;;;;6.40;5.80;;;19.80;50.20;;;;;;5133781;28;20047;-60
2022/04/14 02:01:23;;;;;;;6.57;5.72;;;19.80;50.30;;;;;;5133868;28;20106;-61
2022/04/14 02:03:48;;;;;;;6.13;5.53;;;19.80;50.40;;;;;;5133838;28;20369;-61
2022/04/14 02:06:15;;;;;;;7.43;5.65;;;19.80;50.30;;;;;;5133489;28;20029;-62
2022/04/14 02:08:41;;;;;;;6.30;5.68;;;19.80;50.30;;;;;;5133519;28;20019;-61
2022/04/14 02:11:07;;;;;;;6.22;5.63;;;19.70;50.30;;;;;;5135670;27;20015;-62
2022/04/14 02:13:33;;;;;;;5.72;5.22;;;19.80;50.30;;;;;;5101724;27;20015;-61
2022/04/14 02:15:59;;;;;;;5.90;5.30;;;19.70;50.30;;;;;;5120517;27;20038;-61
2022/04/14 02:18:25;;;;;;;6.78;5.93;;;19.70;50.30;;;;;;5138752;27;20016;-61
2022/04/14 02:20:51;;;;;;;6.88;5.53;;;19.70;50.30;;;;;;5137073;27;20038;-61
2022/04/14 02:23:17;;;;;;;6.65;6.05;;;19.70;50.30;;;;;;5136835;27;20043;-61
2022/04/14 02:25:43;;;;;;;5.78;5.20;;;19.70;50.20;;;;;;5136982;27;20062;-61
2022/04/14 02:28:11;;;;;;;6.75;6.03;;;19.70;50.20;;;;;;5137065;27;20051;-60
2022/04/14 02:30:37;;;;;;;7.38;5.95;;;19.70;50.30;;;;;;5136983;27;20011;-60
2022/04/14 02:33:03;;;;;;;6.47;5.85;;;19.70;50.30;;;;;;5118915;27;20029;-61
2022/04/14 02:35:28;;;;;;;6.25;5.50;;;19.70;50.20;;;;;;5138046;27;20027;-61
2022/04/14 02:37:56;;;;;;;6.45;5.85;;;19.70;50.30;;;;;;5119810;27;20019;-60
2022/04/14 02:40:27;;;;;;;6.55;5.95;;;19.70;50.30;;;;;;5137533;27;20022;-61
2022/04/14 02:42:54;;;;;;;6.63;6.00;;;19.70;50.20;;;;;;5136999;27;20102;-61
2022/04/14 02:45:23;;;;;;;6.18;5.40;;;19.70;50.30;;;;;;5119374;27;20470;-61
2022/04/14 02:47:50;;;;;;;6.32;5.72;;;19.70;50.30;;;;;;5137161;27;20489;-61
2022/04/14 02:50:16;;;;;;;6.45;5.35;;;19.70;50.30;;;;;;5137438;27;20022;-61
2022/04/14 02:52:42;;;;;;;6.93;6.10;;;19.70;50.30;;;;;;5136340;27;20019;-61
2022/04/14 02:55:08;;;;;;;6.72;5.88;;;19.70;50.30;;;;;;5118243;27;20007;-61
2022/04/14 02:57:34;;;;;;;6.50;5.85;;;19.70;50.30;;;;;;5136299;27;20459;-61
2022/04/14 03:00:03;;;;;;;7.15;6.40;;;19.70;50.30;;;;;;5137090;27;20029;-61
2022/04/14 03:02:29;;;;;;;6.53;5.93;;;19.70;50.30;;;;;;5118357;27;20019;-61
2022/04/14 03:04:56;;;;;;;7.68;6.63;;;19.70;50.90;;;;;;5118430;27;20504;-61
2022/04/14 03:07:22;;;;;;;7.15;6.45;;;19.70;50.30;;;;;;5136395;27;20023;-60
2022/04/14 03:09:48;;;;;;;7.15;6.28;;;19.70;50.30;;;;;;5136902;27;20027;-61
2022/04/14 03:12:14;;;;;;;5.93;5.43;;;19.70;50.30;;;;;;5136180;27;20019;-61
2022/04/14 03:14:41;;;;;;;6.88;6.25;;;19.70;50.30;;;;;;5136379;27;20072;-61
2022/04/14 03:17:07;;;;;;;6.75;6.05;;;19.70;50.30;;;;;;5136119;27;20027;-61
2022/04/14 03:19:34;;;;;;;6.70;6.00;;;19.70;50.40;;;;;;5136177;27;20011;-61
2022/04/14 03:22:00;;;;;;;7.35;5.85;;;19.70;50.30;;;;;;5116736;27;20039;-61
2022/04/14 03:24:26;;;;;;;6.30;5.70;;;19.70;50.30;;;;;;5118264;27;20031;-61
2022/04/14 03:26:53;;;;;;;6.40;5.78;;;19.70;50.30;;;;;;5101536;27;20030;-58
2022/04/14 03:29:18;;;;;;;6.15;5.55;;;19.70;50.30;;;;;;5136654;27;20107;-61
2022/04/14 03:31:45;;;;;;;6.32;5.75;;;19.60;50.30;;;;;;5118118;27;20091;-60
2022/04/14 03:34:10;;;;;;;6.70;6.07;;;19.60;50.30;;;;;;5136198;27;20094;-61
2022/04/14 03:36:37;;;;;;;7.25;6.28;;;19.60;50.30;;;;;;5136527;27;20046;-61
2022/04/14 03:39:03;;;;;;;7.72;5.72;;;19.60;50.30;;;;;;5136008;27;20417;-61
2022/04/14 03:41:29;;;;;;;7.10;6.10;;;19.60;50.30;;;;;;5135763;27;20003;-61
2022/04/14 03:43:57;;;;;;;6.93;5.68;;;19.60;50.30;;;;;;5135540;27;20103;-62
2022/04/14 03:46:22;;;;;;;6.63;5.85;;;19.60;50.30;;;;;;5117089;27;20126;-61
2022/04/14 03:48:49;;;;;;;6.63;6.03;;;19.60;50.30;;;;;;5135232;27;20046;-62
2022/04/14 03:51:15;;;;;;;6.68;5.97;;;19.60;50.30;;;;;;5117497;27;20023;-61
2022/04/14 03:53:41;;;;;;;6.75;6.07;;;19.60;50.40;;;;;;5117035;27;20039;-61
2022/04/14 03:56:08;;;;;;;6.63;6.03;;;19.60;50.30;;;;;;5135271;27;20040;-61
2022/04/14 03:58:34;;;;;;;6.15;5.57;;;19.60;50.30;;;;;;5135042;27;20023;-62
2022/04/14 04:01:00;;;;;;;6.25;5.65;;;19.60;50.30;;;;;;5117295;27;20016;-61
2022/04/14 04:03:27;;;;;;;6.78;5.93;;;19.60;50.30;;;;;;5116569;27;20019;-61
2022/04/14 04:05:52;;;;;;;8.82;6.57;;;19.60;50.30;;;;;;5135192;27;20397;-61
2022/04/14 04:08:18;;;;;;;6.38;5.78;;;19.60;50.30;;;;;;5135702;27;20019;-61
2022/04/14 04:10:44;;;;;;;7.10;6.15;;;19.60;50.30;;;;;;5141112;27;20022;-61
2022/04/14 04:13:11;;;;;;;7.05;6.15;;;19.60;50.30;;;;;;5139514;27;20477;-61
2022/04/14 04:15:38;;;;;;;7.03;6.22;;;19.60;50.30;;;;;;5116474;27;20022;-61
2022/04/14 04:18:05;;;;;;;7.07;5.85;;;19.60;50.30;;;;;;5134959;27;20011;-62
2022/04/14 04:20:31;;;;;;;6.93;5.93;;;19.60;50.30;;;;;;5134870;27;20545;-61
2022/04/14 04:22:57;;;;;;;5.97;5.47;;;19.60;50.30;;;;;;5116354;27;20043;-62
2022/04/14 04:25:23;;;;;;;5.57;5.07;;;19.60;50.30;;;;;;5135448;27;20034;-61
2022/04/14 04:27:49;;;;;;;7.05;5.90;;;19.60;50.20;;;;;;5137574;27;20011;-60
2022/04/14 04:30:16;;;;;;;7.18;5.90;;;19.60;50.30;;;;;;5137812;27;20060;-62
2022/04/14 04:32:43;;;;;;;7.13;6.43;;;19.60;50.20;;;;;;5138967;27;20011;-61
2022/04/14 04:35:09;;;;;;;7.18;5.80;;;19.60;50.20;;;;;;5136721;27;20090;-61
2022/04/14 04:37:35;;;;;;;6.82;6.15;;;19.60;50.20;;;;;;5136217;27;20500;-60
2022/04/14 04:40:02;;;;;;;7.00;5.95;;;19.60;50.20;;;;;;5135141;27;20026;-61
2022/04/14 04:42:27;;;;;;;6.75;6.03;;;19.50;50.20;;;;;;5135079;27;20098;-62
2022/04/14 04:44:53;;;;;;;7.18;6.45;;;19.60;50.20;;;;;;5135906;27;20377;-61
2022/04/14 04:47:22;;;;;;;6.30;5.70;;;19.60;50.20;;;;;;5135536;27;20024;-61
2022/04/14 04:49:48;;;;;;;6.28;5.68;;;19.60;50.20;;;;;;5134904;27;20011;-61
2022/04/14 04:52:15;;;;;;;6.38;5.78;;;19.50;50.20;;;;;;5134712;27;20027;-61
2022/04/14 04:54:41;;;;;;;7.72;6.30;;;19.50;50.10;;;;;;5134329;27;20076;-61
2022/04/14 04:57:07;;;;;;;7.30;6.60;;;19.50;50.10;;;;;;5134530;27;20035;-60
2022/04/14 04:59:33;;;;;;;6.07;5.50;;;19.50;50.10;;;;;;5134418;27;20098;-61
2022/04/14 05:01:59;;;;;;;7.03;6.30;;;19.50;50.10;;;;;;5116261;27;20046;-61
2022/04/14 05:04:25;;;;;;;6.55;5.68;;;19.50;50.10;;;;;;5115850;28;20420;-61
2022/04/14 05:06:51;;;;;;;6.30;5.70;;;19.50;50.10;;;;;;5134586;27;20019;-61
2022/04/14 05:09:18;;;;;;;6.85;6.03;;;19.50;50.10;;;;;;5116386;27;20024;-61
2022/04/14 05:11:43;;;;;;;6.30;5.70;;;19.50;50.10;;;;;;5134073;27;20598;-62
2022/04/14 05:14:10;;;;;;;7.03;6.13;;;19.50;50.20;;;;;;5134097;28;20087;-61
2022/04/14 05:16:36;;;;;;;7.10;6.40;;;19.60;50.20;;;;;;5081664;28;20057;-62
2022/04/14 05:19:01;;;;;;;8.50;5.57;;;19.50;50.10;;;;;;5134779;28;20063;-62
2022/04/14 05:21:27;;;;;;;6.70;6.00;;;19.50;50.10;;;;;;5134364;28;20026;-62
2022/04/14 05:23:54;;;;;;;7.07;6.40;;;19.50;50.10;;;;;;5133452;28;20079;-62
2022/04/14 05:26:20;;;;;;;8.88;6.38;;;19.50;50.10;;;;;;5133877;28;20014;-61
2022/04/14 05:28:46;;;;;;;7.18;6.43;;;19.50;50.10;;;;;;5133997;28;20533;-62
2022/04/14 05:31:11;;;;;;;6.75;6.03;;;19.50;50.10;;;;;;5116012;28;20027;-62
2022/04/14 05:33:37;;;;;;;7.07;6.38;;;19.50;50.10;;;;;;5115342;28;20021;-62
2022/04/14 05:36:04;;;;;;;6.72;5.78;;;19.50;50.10;;;;;;5133625;28;20500;-62
2022/04/14 05:38:31;;;;;;;6.65;6.03;;;19.50;50.10;;;;;;5133968;28;20015;-62
2022/04/14 05:40:59;;;;;;;6.97;5.97;;;19.50;50.10;;;;;;5115705;28;20007;-62
2022/04/14 05:43:27;;;;;;;6.22;5.60;;;19.50;50.10;;;;;;5115580;28;20480;-62
2022/04/14 05:45:54;;;;;;;6.57;5.97;;;19.50;50.00;;;;;;5135768;27;20027;-62
2022/04/14 05:48:22;;;;;;;6.72;6.13;;;19.60;49.90;;;;;;5137587;27;20488;-62
2022/04/14 05:50:49;;;;;;;6.47;5.88;;;19.60;49.80;;;;;;5137513;27;20051;-62
2022/04/14 05:53:15;;;;;;;7.57;5.63;;;19.70;49.70;;;;;;5137447;27;20461;-62
2022/04/14 05:55:41;;;;;;;6.53;5.78;;;19.80;49.40;;;;;;5137586;27;20019;-62
2022/04/14 05:58:07;;;;;;;6.13;5.53;;;19.90;49.20;;;;;;5137538;27;20007;-62
2022/04/14 06:00:34;;;;;;;6.47;5.70;;;19.90;49.00;;;;;;5102249;27;20022;-62
2022/04/14 06:03:00;;;;;;;6.18;5.60;;;20.00;48.90;;;;;;5137656;27;20026;-61
2022/04/14 06:05:27;;;;;;;6.65;5.85;;;20.10;48.70;;;;;;5137317;27;20007;-63
2022/04/14 06:07:53;;;;;;;7.18;5.60;;;20.20;48.50;;;;;;5137259;27;20465;-61
2022/04/14 06:10:19;;;;;;;6.47;5.88;;;20.30;48.30;;;;;;5137489;27;20006;-62
2022/04/14 06:12:46;;;;;;;6.13;5.35;;;20.30;48.20;;;;;;5137397;27;20015;-62
2022/04/14 06:15:13;;;;;;;7.22;5.93;;;20.30;48.00;;;;;;5137366;27;20027;-61
2022/04/14 06:17:42;;;;;;;6.47;5.82;;;20.40;47.90;;;;;;5118960;27;20055;-62
2022/04/14 06:20:08;;;;;;;6.03;5.43;;;20.50;47.80;;;;;;5137111;27;20042;-62
2022/04/14 06:22:41;;;;;;;6.25;5.65;;;20.50;47.60;;;;;;5119658;27;20520;-61
2022/04/14 06:25:12;;;;;;;6.03;5.43;;;20.50;47.50;;;;;;5120418;27;20466;-60
2022/04/14 06:27:44;;;;;;;;;;;20.60;47.50;;;;;;5139468;27;20050;-61
2022/04/14 06:30:12;;;;;;;6.45;5.53;;;20.60;47.40;;;;;;5138674;27;19907;-61
2022/04/14 06:32:38;;;;;;;8.15;5.72;;;20.60;47.30;;;;;;5119679;27;20023;-61
2022/04/14 06:35:05;;;;;;;5.72;5.18;;;20.70;47.30;;;;;;5137964;27;20141;-60
2022/04/14 06:37:30;;;;;;;6.20;5.47;;;20.70;47.20;;;;;;5137110;27;20076;-61
2022/04/14 06:39:56;;;;;;;6.20;5.43;;;20.70;47.10;;;;;;5118274;27;20007;-63
2022/04/14 06:42:22;;;;;;;5.40;4.82;;;20.70;47.00;;;;;;5118583;27;20098;-61
2022/04/14 06:44:50;;;;;;;7.25;5.40;;;20.80;47.00;;;;;;5118892;27;20015;-61
2022/04/14 06:47:15;;;;;;;8.27;5.60;;;20.80;46.90;;;;;;5136788;27;20020;-61
2022/04/14 06:49:41;;;;;;;5.80;5.20;;;20.80;46.80;;;;;;5136641;27;20015;-61
2022/04/14 06:52:07;;;;;;;6.13;5.53;;;20.90;46.80;;;;;;5136460;27;20019;-61
2022/04/14 06:54:34;;;;;;;6.03;5.45;;;20.90;46.70;;;;;;5101240;27;20092;-62
2022/04/14 06:57:00;;;;;;;6.25;5.65;;;20.90;46.60;;;;;;5117852;27;20032;-60
2022/04/14 06:59:27;;;;;;;6.57;5.30;;;21.00;46.60;;;;;;5136333;27;20469;-61
2022/04/14 07:01:53;;;;;;;6.15;5.03;;;21.10;46.50;;;;;;5101579;27;20027;-61
2022/04/14 07:04:20;;;;;;;6.75;4.88;;;21.10;46.40;;;;;;5118089;27;20016;-61
2022/04/14 07:06:46;;;;;;;6.18;5.63;;;21.10;46.40;;;;;;5100564;27;20037;-61
2022/04/14 07:09:12;;;;;;;8.70;5.35;;;21.10;46.30;;;;;;5117793;27;20068;-61
2022/04/14 07:11:38;;;;;;;8.10;5.30;;;21.20;46.40;;;;;;5117888;27;20069;-61
2022/04/14 07:14:04;;;;;;;5.95;5.35;;;21.20;46.30;;;;;;5117445;27;20023;-61
2022/04/14 07:16:30;;;;;;;5.43;4.88;;;21.20;46.30;;;;;;5135941;27;20027;-65
2022/04/14 07:18:56;;;;;;;5.68;4.97;;;21.20;46.20;;;;;;5117587;27;20095;-61
2022/04/14 07:21:22;;;;;;;6.40;5.03;;;21.20;46.10;;;;;;5117826;27;20034;-61
2022/04/14 07:23:47;;;;;;;6.90;5.20;;;21.30;46.10;;;;;;5117197;27;20406;-61
2022/04/14 07:26:13;;;;;;;5.95;5.18;;;21.30;46.00;;;;;;5135638;27;20019;-65
2022/04/14 07:28:39;;;;;;;5.82;5.10;;;21.30;45.90;;;;;;5135816;27;20046;-60
2022/04/14 07:31:05;;;;;;;5.95;4.70;;;21.40;45.90;;;;;;5117172;27;20564;-61
2022/04/14 07:33:37;;;;;;;6.80;5.13;;;21.40;45.90;;;;;;5135446;27;20023;-61
2022/04/14 07:36:03;;;;;;;5.18;4.50;;;21.30;45.90;;;;;;5135446;27;20030;-62
2022/04/14 07:38:30;;;;;;;5.78;5.00;;;21.40;45.90;;;;;;5117168;27;20046;-61
2022/04/14 07:40:56;;;;;;;6.43;4.63;;;21.40;45.90;;;;;;5117530;27;20719;-61
2022/04/14 07:43:25;;;;;;;5.40;4.90;;;21.40;45.90;;;;;;5135546;27;20038;-60
2022/04/14 07:45:50;;;;;;;6.22;4.68;;;21.40;45.80;;;;;;5135215;27;20019;-60
2022/04/14 07:48:16;;;;;;;5.50;5.00;;;21.40;45.90;;;;;;5099744;27;20027;-61
2022/04/14 07:50:42;;;;;;;8.18;4.82;;;21.40;45.90;;;;;;5116800;27;20025;-61
2022/04/14 07:53:08;;;;;;;6.10;4.40;;;21.40;45.80;;;;;;5135592;27;20049;-61
2022/04/14 07:55:34;;;;;;;6.07;4.95;;;21.50;45.80;;;;;;5135247;27;20064;-61
2022/04/14 07:58:04;;;;;;;5.82;4.60;;;21.50;45.80;;;;;;5135338;27;20050;-61
2022/04/14 08:00:30;;;;;;;4.40;4.00;;;21.50;45.80;;;;;;5135218;27;20014;-61
2022/04/14 08:02:59;;;;;;;5.88;4.82;;;21.50;45.70;;;;;;5135439;27;20007;-61
2022/04/14 08:05:31;;;;;;;5.60;4.07;;;21.50;45.80;;;;;;5117497;27;20034;-61
2022/04/14 08:07:57;;;;;;;5.93;4.88;;;21.50;45.80;;;;;;5134641;27;20023;-60
2022/04/14 08:10:23;;;;;;;6.13;4.18;;;21.50;45.90;;;;;;5135647;27;20038;-60
2022/04/14 08:12:50;;;;;;;4.70;4.25;;;21.50;45.90;;;;;;5117330;27;20012;-60
2022/04/14 08:15:16;;;;;;;6.03;4.35;;;21.50;45.90;;;;;;5135545;27;20008;-61
2022/04/14 08:17:43;;;;;;;6.00;4.10;;;21.60;45.80;;;;;;5117816;27;20057;-60
2022/04/14 08:20:10;;;;;;;5.35;4.53;;;21.60;45.60;;;;;;5135602;27;20496;-60
2022/04/14 08:22:46;;;;;;;5.32;4.47;;;21.60;45.60;;;;;;5136082;27;20111;-60
2022/04/14 08:25:12;;;;;;;5.47;4.22;;;21.60;45.60;;;;;;5136354;27;20015;-60
2022/04/14 08:27:39;;;;;;;5.40;4.35;;;21.50;45.80;;;;;;5118226;27;20022;-60
2022/04/14 08:30:05;;;;;;;5.93;4.60;;;21.50;46.00;;;;;;5136086;27;20019;-60
2022/04/14 08:32:31;;;;;;;6.47;5.20;;;21.50;46.10;;;;;;5117476;27;20023;-60
2022/04/14 08:34:58;;;;;;;5.18;4.55;;;21.40;46.20;;;;;;5135754;27;20080;-60
2022/04/14 08:37:23;;;;;;;5.13;4.20;;;21.40;46.20;;;;;;5135830;27;20039;-61
2022/04/14 08:39:49;;;;;;;6.72;4.28;;;21.40;46.30;;;;;;5100109;27;20375;-61
2022/04/14 08:42:17;;;;;;;5.43;3.95;;;21.40;46.30;;;;;;5117201;27;20060;-61
2022/04/14 08:44:47;;;;;;;6.20;4.20;;;21.30;46.20;;;;;;5135369;27;20007;-61
2022/04/14 08:47:13;;;;;;;5.45;3.70;;;21.40;46.30;;;;;;5135161;27;20035;-61
2022/04/14 08:49:39;;;;;;;5.90;4.82;;;21.40;46.40;;;;;;5134090;27;20022;-61
2022/04/14 08:52:05;;;;;;;6.80;4.78;;;21.40;46.40;;;;;;5115916;27;20026;-60
2022/04/14 08:54:31;;;;;;;4.72;4.22;;;21.40;46.40;;;;;;5134289;27;20386;-61
2022/04/14 08:56:58;;;;;;;7.25;4.20;;;21.40;46.40;;;;;;5098869;27;20023;-61
2022/04/14 08:59:24;;;;;;;6.65;4.53;;;21.40;46.30;;;;;;5116182;27;20007;-61
2022/04/14 09:01:50;;;;;;;6.43;4.45;;;21.50;46.40;;;;;;5134243;27;20154;-63
2022/04/14 09:04:17;;;;;;;5.28;4.00;;;21.50;46.30;;;;;;5134201;27;20026;-61
2022/04/14 09:06:43;;;;;;;4.93;4.40;;;21.50;46.20;;;;;;5134139;27;20030;-61
2022/04/14 09:09:09;;;;;;;5.75;4.30;;;21.50;46.20;;;;;;5133970;27;20039;-62
2022/04/14 09:11:38;;;;;;;6.43;4.20;;;21.50;46.20;;;;;;5133961;27;20011;-62
2022/04/14 09:14:04;;;;;;;5.00;4.00;;;21.50;46.10;;;;;;5115890;28;20015;-62
2022/04/14 09:16:32;;;;;;;6.05;4.15;;;21.50;46.10;;;;;;5115246;28;20037;-61
2022/04/14 09:19:00;;;;;;;5.40;4.00;;;21.50;46.10;;;;;;5133791;27;20017;-61
2022/04/14 09:21:26;;;;;;;5.75;3.65;;;21.60;46.20;;;;;;5137638;27;20086;-61
2022/04/14 09:23:52;;;;;;;6.38;3.90;;;21.60;46.20;;;;;;5119645;27;20549;-61
2022/04/14 09:26:23;;;;;;;6.95;4.57;;;21.60;46.20;;;;;;5137991;27;20086;-61
2022/04/14 09:29:10;;;;;;;7.20;4.35;;;21.60;46.20;;;;;;5138463;27;20019;-61
2022/04/14 09:31:51;;;;;;;5.25;3.80;;;21.60;46.10;;;;;;5138015;27;20022;-62
2022/04/14 09:34:18;;;;;;;5.15;3.90;;;21.60;46.10;;;;;;5119475;27;20016;-61
2022/04/14 09:37:04;;;;;;;6.03;4.28;;;21.60;46.20;;;;;;5137732;27;20031;-62
2022/04/14 09:39:30;;;;;;;5.95;4.38;;;21.60;46.20;;;;;;5138045;27;20034;-62
2022/04/14 09:41:56;;;;;;;6.30;4.15;;;21.60;46.20;;;;;;5103167;27;20054;-61
2022/04/14 09:44:24;;;;;;;5.25;3.97;;;21.60;46.20;;;;;;5139219;27;20076;-61
2022/04/14 09:46:50;;;;;;;6.25;4.35;;;21.60;46.20;;;;;;5107090;27;20022;-61
2022/04/14 09:49:17;;;;;;;5.35;3.67;;;21.60;46.30;;;;;;5140568;27;20019;-61
2022/04/14 09:51:47;;;;;;;6.93;3.92;;;21.60;46.30;;;;;;5121480;27;20023;-61
2022/04/14 09:54:17;;;;;;;4.70;3.85;;;21.60;46.40;;;;;;5140670;27;20014;-61
2022/04/14 09:56:43;;;;;;;8.37;4.10;;;21.50;46.40;;;;;;5141661;27;20516;-61
2022/04/14 09:59:10;;;;;;;5.63;4.22;;;21.60;46.50;;;;;;5138867;27;20488;-61
2022/04/14 10:01:37;;;;;;;7.03;4.05;;;21.50;46.50;;;;;;5139509;27;20023;-61
2022/04/14 10:04:04;;;;;;;6.43;4.50;;;21.50;46.60;;;;;;5139326;27;20015;-61
2022/04/14 10:06:30;;;;;;;4.68;3.70;;;21.50;46.70;;;;;;5139258;27;20072;-61
2022/04/14 10:08:57;;;;;;;4.32;3.55;;;21.50;46.60;;;;;;5140122;27;20022;-62
2022/04/14 10:11:30;;;;;;;6.10;4.25;;;21.50;46.60;;;;;;5120534;27;20023;-61
2022/04/14 10:14:11;;;;;;;6.95;3.83;;;21.50;46.70;;;;;;5137573;27;20023;-61
2022/04/14 10:16:40;;;;;;;5.80;3.50;;;21.50;46.70;;;;;;5137851;27;20019;-61
2022/04/14 10:19:09;;;;;;;5.20;3.88;;;21.40;46.80;;;;;;5087651;27;20060;-61
2022/04/14 10:21:39;;;;;;;6.15;4.07;;;21.40;46.80;;;;;;5139368;27;20461;-62
2022/04/14 10:24:06;;;;;;;7.18;4.10;;;21.40;46.80;;;;;;5120441;27;20033;-61
2022/04/14 10:26:35;;;;;;;5.80;3.78;;;21.40;46.80;;;;;;5121823;27;20130;-61
2022/04/14 10:29:03;;;;;;;6.93;3.90;;;21.40;46.90;;;;;;5138521;27;20465;-61
2022/04/14 10:31:30;;;;;;;5.28;3.80;;;21.50;46.90;;;;;;5136704;27;20019;-61
2022/04/14 10:33:59;;;;;;;5.88;3.85;;;21.50;46.80;;;;;;5118830;27;20026;-61
2022/04/14 10:36:25;;;;;;;5.53;3.63;;;21.50;46.80;;;;;;5136837;27;20424;-61
2022/04/14 10:38:51;;;;;;;5.13;3.40;;;21.50;46.80;;;;;;5118982;27;20064;-61
2022/04/14 10:41:21;;;;;;;7.00;3.92;;;21.50;46.70;;;;;;5118153;27;20414;-61
2022/04/14 10:43:47;;;;;;;6.72;3.63;;;21.50;47.30;;;;;;5136474;27;20478;-61
2022/04/14 10:46:17;;;;;;;7.03;3.70;;;21.50;46.80;;;;;;5136710;27;20026;-61
2022/04/14 10:48:44;;;;;;;7.88;4.20;;;21.60;46.60;;;;;;5118712;27;20061;-62
2022/04/14 10:51:29;;;;;;;7.28;4.10;;;21.60;46.50;;;;;;5136614;27;20008;-62
2022/04/14 10:54:06;;;;;;;5.07;3.50;;;21.70;46.40;;;;;;5136198;27;20019;-61
2022/04/14 10:56:37;;;;;;;5.50;3.47;;;21.70;46.30;;;;;;5136370;27;20050;-62
2022/04/14 10:59:04;;;;;;;4.60;3.40;;;21.90;46.00;;;;;;5136201;27;20067;-61
2022/04/14 11:01:46;;;;;;;6.03;3.70;;;21.90;46.00;;;;;;5136399;27;20449;-61
2022/04/14 11:04:26;;;;;;;;;;;21.90;46.00;;;;;;5136747;27;20019;-61
2022/04/14 11:07:21;;;;;;;7.22;3.30;;;21.80;46.00;;;;;;5136324;27;19906;-61
2022/04/14 11:09:59;;;;;;;5.22;3.67;;;21.80;46.20;;;;;;5136069;27;20023;-61
2022/04/14 11:12:54;;;;;;;5.90;3.35;;;21.80;46.20;;;;;;5136173;27;20003;-62
2022/04/14 11:15:30;;;;;;;4.32;3.30;;;21.80;46.20;;;;;;5136806;27;20473;-61
2022/04/14 11:18:03;;;;;;;7.15;3.60;;;21.70;46.20;;;;;;5136841;27;20023;-61
2022/04/14 11:20:34;;;;;;;7.90;3.90;;;21.70;46.20;;;;;;5136856;27;20012;-61
2022/04/14 11:23:18;;;;;;;6.10;3.50;;;21.70;46.30;;;;;;5136520;27;20051;-61
2022/04/14 11:25:48;;;;;;;4.80;3.20;;;21.70;46.30;;;;;;5136426;27;20072;-61
2022/04/14 11:28:27;;;;;;;4.15;3.50;;;21.60;46.30;;;;;;5136024;27;20542;-61
2022/04/14 11:30:55;;;;;;;4.53;3.20;;;21.70;46.40;;;;;;5136494;27;20035;-61
2022/04/14 11:33:42;;;;;;;5.78;3.20;;;21.60;46.40;;;;;;5136230;27;20017;-61
2022/04/14 11:36:10;;;;;;;8.60;3.80;;;21.60;46.40;;;;;;5118199;27;20076;-62
2022/04/14 11:38:58;;;;;;;6.00;3.80;;;21.60;46.40;;;;;;5135420;27;20091;-62
2022/04/14 11:41:33;;;;;;;6.25;3.20;;;21.60;46.40;;;;;;5135793;27;20039;-62
2022/04/14 11:44:04;;;;;;;7.22;4.13;;;21.60;46.50;;;;;;5135726;27;20030;-61
2022/04/14 11:46:30;;;;;;;5.32;3.55;;;21.50;46.50;;;;;;5117980;27;20060;-61
2022/04/14 11:48:58;;;;;;;8.63;3.40;;;21.50;46.60;;;;;;5136080;27;20419;-61
2022/04/14 11:51:24;;;;;;;4.00;3.17;;;21.60;46.60;;;;;;5117022;27;20029;-61
2022/04/14 11:53:50;;;;;;;5.38;3.85;;;21.60;46.60;;;;;;5135461;27;20102;-61
2022/04/14 11:56:17;;;;;;;5.25;3.53;;;21.60;46.60;;;;;;5135331;27;20111;-61
2022/04/14 11:58:43;;;;;;;4.32;3.50;;;21.60;46.50;;;;;;5099599;27;20046;-61
2022/04/14 12:01:09;;;;;;;5.35;3.40;;;21.60;46.50;;;;;;5135067;27;20042;-61
2022/04/14 12:03:35;;;;;;;6.00;3.60;;;21.60;46.60;;;;;;5116991;27;20149;-61
2022/04/14 12:06:09;;;;;;;5.60;3.50;;;21.60;46.50;;;;;;5135672;27;20031;-61
2022/04/14 12:08:35;;;;;;;5.28;3.08;;;21.60;46.50;;;;;;5135177;27;20012;-61
2022/04/14 12:11:11;;;;;;;6.82;3.28;;;21.60;46.50;;;;;;5135022;27;20102;-61
2022/04/14 12:13:37;;;;;;;4.13;2.90;;;21.60;46.40;;;;;;5135631;27;20011;-61
2022/04/14 12:16:08;;;;;;;4.57;3.40;;;21.60;46.40;;;;;;5135191;27;20476;-62
2022/04/14 12:18:35;;;;;;;4.40;2.88;;;21.60;46.50;;;;;;5134933;27;20373;-61
2022/04/14 12:21:04;;;;;;;4.78;3.30;;;21.60;46.40;;;;;;5116361;27;20420;-59
2022/04/14 12:23:31;;;;;;;5.25;3.40;;;21.60;46.40;;;;;;5134378;27;20047;-61
2022/04/14 12:25:59;;;;;;;4.20;2.95;;;21.60;46.40;;;;;;5134372;27;20503;-61
2022/04/14 12:28:25;;;;;;;4.50;3.15;;;21.60;46.40;;;;;;5135870;27;20019;-62
2022/04/14 12:30:50;;;;;;;3.97;2.92;;;21.60;46.30;;;;;;5134816;27;20106;-62
2022/04/14 12:33:26;;;;;;;7.63;3.25;;;21.70;46.40;;;;;;5134578;27;20030;-62
2022/04/14 12:35:51;;;;;;;4.93;3.20;;;21.70;46.30;;;;;;5134593;27;20038;-61
2022/04/14 12:38:19;;;;;;;5.25;2.97;;;21.70;46.30;;;;;;5134730;27;20023;-61
2022/04/14 12:40:57;;;;;;;5.97;2.97;;;21.70;46.30;;;;;;5134513;27;20007;-62
2022/04/14 12:43:28;;;;;;;6.32;3.22;;;21.70;46.30;;;;;;5134709;27;20022;-61
2022/04/14 12:45:54;;;;;;;;;;;21.70;46.10;;;;;;5116551;27;20069;-61
2022/04/14 12:48:36;;;;;;;7.57;3.17;;;21.80;46.10;;;;;;5134666;27;19900;-61
2022/04/14 12:51:02;;;;;;;4.63;3.38;;;21.80;46.00;;;;;;5134128;27;20015;-61